Kaycee, Wyoming
Current Conditions -  °F | °C
As of 1:53 PM on Tuesday 21 Oct 2014 (Local Time) from KBYG Reporting Station
Light Rain Light Rain  
Wind Chill: 77°   Ceiling: Unl
Heat Index: 77°   Visibility: 10mi
Dew Point: 30°   Wind: 20mph
Humidity: 18%   Direction: 220°SW
Pressure: 29.76"   Gusts: 37mph
Location:  43.71°N, 106.64°W
Report Text: KBYG 211953Z AUTO 22017G32KT 10SM -RA CLR 25/M01 A2976 RMK AO2 PK WND 21032/1944 RAB44 SLP025 P0000 T02501011
Loading
Personal Weather Stations






























Interactive Weather Map
Tropical Storm Tracking
New forecast layout! Learn more

10-Day Weather Forecast

Advertisements
Track Severe Weather on mobile